createdAt,value
2019-05-09T00:02:19.692Z,7.40
2019-05-09T00:04:47.043Z,7.40
2019-05-09T00:07:14.467Z,7.40
2019-05-09T00:09:43.958Z,7.30
2019-05-09T00:12:10.947Z,7.40
2019-05-09T00:14:38.176Z,7.40
2019-05-09T00:17:05.520Z,7.40
2019-05-09T00:19:33.439Z,7.40
2019-05-09T00:22:03.092Z,7.40
2019-05-09T00:24:30.139Z,7.40
2019-05-09T00:26:57.395Z,7.30
2019-05-09T00:29:39.078Z,7.30
2019-05-09T00:32:17.184Z,7.30
2019-05-09T00:34:54.248Z,7.30
2019-05-09T00:37:43.067Z,7.30
2019-05-09T00:40:10.419Z,7.30
2019-05-09T00:42:37.729Z,7.30
2019-05-09T00:45:07.691Z,7.30
2019-05-09T00:47:34.916Z,7.30
2019-05-09T00:50:05.168Z,7.30
2019-05-09T00:52:33.919Z,7.30
2019-05-09T00:55:03.789Z,7.40
2019-05-09T00:57:33.561Z,7.40
2019-05-09T01:00:04.020Z,7.40
2019-05-09T01:02:31.417Z,7.40
2019-05-09T01:04:58.832Z,7.50
2019-05-09T01:07:26.247Z,7.40
2019-05-09T01:09:54.320Z,7.50
2019-05-09T01:12:23.522Z,7.50
2019-05-09T01:14:50.945Z,7.50
2019-05-09T01:17:18.286Z,7.40
2019-05-09T01:19:45.514Z,7.40
2019-05-09T01:22:13.311Z,7.50
2019-05-09T01:24:40.661Z,7.50
2019-05-09T01:27:08.014Z,7.50
2019-05-09T01:29:41.037Z,7.50
2019-05-09T01:32:15.866Z,7.60
2019-05-09T01:34:43.728Z,7.50
2019-05-09T01:37:13.906Z,7.50
2019-05-09T01:39:40.709Z,7.50
2019-05-09T01:42:08.119Z,7.60
2019-05-09T01:44:35.466Z,7.60
2019-05-09T01:47:03.727Z,7.60
2019-05-09T01:49:33.893Z,7.50
2019-05-09T01:52:03.010Z,7.50
2019-05-09T01:54:29.922Z,7.50
2019-05-09T01:56:57.277Z,7.60
2019-05-09T01:59:24.978Z,7.60
2019-05-09T02:01:54.100Z,7.60
2019-05-09T02:04:24.090Z,7.60
2019-05-09T02:06:53.593Z,7.70
2019-05-09T02:09:20.143Z,7.60
2019-05-09T02:11:47.455Z,7.70
2019-05-09T02:14:17.948Z,7.60
2019-05-09T02:16:59.514Z,7.60
2019-05-09T02:19:30.618Z,7.60
2019-05-09T02:21:57.908Z,7.60
2019-05-09T02:24:25.159Z,7.50
2019-05-09T02:26:53.496Z,7.60
2019-05-09T02:29:22.957Z,7.60
2019-05-09T02:31:49.929Z,7.60
2019-05-09T02:34:17.299Z,7.60
2019-05-09T02:36:44.620Z,7.60
2019-05-09T02:39:11.939Z,7.60
2019-05-09T02:41:57.777Z,7.60
2019-05-09T02:44:09.310Z,7.60
2019-05-09T02:47:02.031Z,7.60
2019-05-09T02:49:29.661Z,7.60
2019-05-09T02:51:59.350Z,7.70
2019-05-09T02:54:29.419Z,7.70
2019-05-09T02:56:57.854Z,7.70
2019-05-09T02:59:49.317Z,7.70
2019-05-09T03:02:32.247Z,7.70
2019-05-09T03:04:59.830Z,7.70
2019-05-09T03:07:48.355Z,7.70
2019-05-09T03:10:14.415Z,7.70
2019-05-09T03:12:41.743Z,7.70
2019-05-09T03:15:09.320Z,7.70
2019-05-09T03:17:38.649Z,7.70
2019-05-09T03:20:09.452Z,7.70
2019-05-09T03:22:39.505Z,7.70
2019-05-09T03:27:41.956Z,7.70
2019-05-09T03:30:12.707Z,7.70
2019-05-09T03:32:40.248Z,7.60
2019-05-09T03:35:08.438Z,7.70
2019-05-09T03:37:37.761Z,7.60
2019-05-09T03:40:05.227Z,7.60
2019-05-09T03:42:43.082Z,7.60
2019-05-09T03:45:01.957Z,7.70
2019-05-09T03:47:37.551Z,7.60
2019-05-09T03:50:22.760Z,7.60
2019-05-09T03:52:50.082Z,7.60
2019-05-09T03:55:22.794Z,7.60
2019-05-09T03:58:04.600Z,7.70
2019-05-09T04:00:32.042Z,7.60
2019-05-09T04:02:59.370Z,7.60
2019-05-09T04:05:27.289Z,7.60
2019-05-09T04:07:58.391Z,7.60
2019-05-09T04:10:28.069Z,7.60
2019-05-09T04:12:58.990Z,7.60
2019-05-09T04:15:24.080Z,7.60
2019-05-09T04:17:51.442Z,7.60
2019-05-09T04:20:18.783Z,7.60
2019-05-09T04:22:46.019Z,7.60
2019-05-09T04:25:18.377Z,7.60
2019-05-09T04:27:47.996Z,7.60
2019-05-09T04:30:18.188Z,7.60
2019-05-09T04:32:45.259Z,7.70
2019-05-09T04:35:12.593Z,7.70
2019-05-09T04:37:39.932Z,7.70
2019-05-09T04:40:08.217Z,7.80
2019-05-09T04:42:43.098Z,7.90
2019-05-09T04:45:13.767Z,8.00
2019-05-09T04:47:43.435Z,8.00
2019-05-09T04:50:10.327Z,8.10
2019-05-09T04:52:39.836Z,8.10
2019-05-09T04:55:07.910Z,8.10
2019-05-09T04:57:35.244Z,8.10
2019-05-09T05:00:03.237Z,8.10
2019-05-09T05:02:38.036Z,8.10
2019-05-09T05:05:07.755Z,8.10
2019-05-09T05:07:37.481Z,8.10
2019-05-09T05:10:05.291Z,8.10
2019-05-09T05:12:32.941Z,8.20
2019-05-09T05:15:00.192Z,8.20
2019-05-09T05:17:30.238Z,8.20
2019-05-09T05:19:58.039Z,8.20
2019-05-09T05:22:31.251Z,8.20
2019-05-09T05:25:01.390Z,8.30
2019-05-09T05:27:28.937Z,8.30
2019-05-09T05:29:58.329Z,8.40
2019-05-09T05:32:40.173Z,8.40
2019-05-09T05:35:33.111Z,8.30
2019-05-09T05:38:00.332Z,8.30
2019-05-09T05:40:33.291Z,8.20
2019-05-09T05:42:58.525Z,8.20
2019-05-09T05:45:28.500Z,8.20
2019-05-09T05:47:59.341Z,8.30
2019-05-09T05:50:28.056Z,8.40
2019-05-09T05:52:57.712Z,8.40
2019-05-09T05:55:24.776Z,8.40
2019-05-09T05:57:52.050Z,8.40
2019-05-09T06:00:21.706Z,8.40
2019-05-09T06:02:49.022Z,8.40
2019-05-09T06:05:18.458Z,8.40
2019-05-09T06:07:45.564Z,8.50
2019-05-09T06:10:12.980Z,8.40
2019-05-09T06:12:40.229Z,8.50
2019-05-09T06:15:07.872Z,8.50
2019-05-09T06:17:37.753Z,8.60
2019-05-09T06:20:04.904Z,8.60
2019-05-09T06:22:32.153Z,8.60
2019-05-09T06:24:59.525Z,8.50
2019-05-09T06:27:27.482Z,8.60
2019-05-09T06:29:55.190Z,8.50
2019-05-09T06:32:22.824Z,8.60
2019-05-09T06:34:50.455Z,8.50
2019-05-09T06:37:18.453Z,8.30
2019-05-09T06:39:45.835Z,8.20
2019-05-09T06:42:13.731Z,8.10
2019-05-09T06:45:03.429Z,8.00
2019-05-09T06:47:33.333Z,8.00
2019-05-09T06:50:04.540Z,8.00
2019-05-09T06:52:31.900Z,8.00
2019-05-09T06:54:59.364Z,8.00
2019-05-09T06:57:28.108Z,7.90
2019-05-09T06:59:58.079Z,8.00
2019-05-09T07:02:38.816Z,7.80
2019-05-09T07:05:11.204Z,7.70
2019-05-09T07:07:44.173Z,7.70
2019-05-09T07:10:11.480Z,7.60
2019-05-09T07:12:38.748Z,7.60
2019-05-09T07:15:08.862Z,7.70
2019-05-09T07:17:38.718Z,7.80
2019-05-09T07:20:08.465Z,7.80
2019-05-09T07:22:52.903Z,7.80
2019-05-09T07:25:47.872Z,7.80
2019-05-09T07:28:15.214Z,7.80
2019-05-09T07:31:01.049Z,7.80
2019-05-09T07:33:35.277Z,7.80
2019-05-09T07:36:02.676Z,7.80
2019-05-09T07:38:31.134Z,7.80
2019-05-09T07:40:59.752Z,7.80
2019-05-09T07:43:28.176Z,7.70
2019-05-09T07:46:24.214Z,7.60
2019-05-09T07:48:52.299Z,7.60
2019-05-09T07:51:19.735Z,7.50
2019-05-09T07:53:48.155Z,7.40
2019-05-09T07:56:15.819Z,7.50
2019-05-09T07:58:43.073Z,7.50
2019-05-09T08:01:10.528Z,7.60
2019-05-09T08:03:38.594Z,7.50
2019-05-09T08:06:08.423Z,7.60
2019-05-09T08:08:35.401Z,7.50
2019-05-09T08:11:02.835Z,7.60
2019-05-09T08:13:30.073Z,7.50
2019-05-09T08:15:58.593Z,7.40
2019-05-09T08:18:28.194Z,7.30
2019-05-09T08:20:57.115Z,7.20
2019-05-09T08:23:24.577Z,7.20
2019-05-09T08:25:51.899Z,7.10
2019-05-09T08:28:20.113Z,7.10
2019-05-09T08:30:48.441Z,7.10
2019-05-09T08:33:18.280Z,7.10
2019-05-09T08:35:49.899Z,7.10
2019-05-09T08:38:14.382Z,7.10
2019-05-09T08:40:41.740Z,7.20
2019-05-09T08:43:09.112Z,7.10
2019-05-09T08:45:38.277Z,7.10
2019-05-09T08:48:05.683Z,7.10
2019-05-09T08:50:52.561Z,7.10
2019-05-09T08:53:19.900Z,7.20
2019-05-09T08:55:47.550Z,7.00
2019-05-09T08:58:14.916Z,7.00
2019-05-09T09:00:42.381Z,6.90
2019-05-09T09:03:09.784Z,6.90
2019-05-09T09:05:38.135Z,6.90
2019-05-09T09:08:08.177Z,6.80
2019-05-09T09:10:34.992Z,6.80
2019-05-09T09:13:02.219Z,6.80
2019-05-09T09:15:55.818Z,6.80
2019-05-09T09:17:58.684Z,6.80
2019-05-09T09:20:28.534Z,6.80
2019-05-09T09:22:55.400Z,6.70
2019-05-09T09:25:23.217Z,6.70
2019-05-09T09:27:51.229Z,6.70
2019-05-09T09:30:24.767Z,6.80
2019-05-09T09:32:48.160Z,6.80
2019-05-09T09:35:15.491Z,6.80
2019-05-09T09:37:48.530Z,6.80
2019-05-09T09:40:12.609Z,6.90
2019-05-09T09:42:40.080Z,6.90
2019-05-09T09:45:08.067Z,6.90
2019-05-09T09:47:38.802Z,6.90
2019-05-09T09:50:04.824Z,6.90
2019-05-09T09:52:34.478Z,6.90
2019-05-09T09:55:01.320Z,6.90
2019-05-09T09:57:29.014Z,6.90
2019-05-09T10:00:18.084Z,6.90
2019-05-09T10:02:45.359Z,6.90
2019-05-09T10:05:12.901Z,6.90
2019-05-09T10:07:40.240Z,7.00
2019-05-09T10:10:07.935Z,7.10
2019-05-09T10:12:43.548Z,7.10
2019-05-09T10:15:32.748Z,7.10
2019-05-09T10:18:13.198Z,7.20
2019-05-09T10:20:48.504Z,7.20
2019-05-09T10:23:18.848Z,7.30
2019-05-09T10:25:45.120Z,7.20
2019-05-09T10:28:12.371Z,7.20
2019-05-09T10:30:39.696Z,7.20
2019-05-09T10:33:09.188Z,7.20
2019-05-09T10:35:38.963Z,7.30
2019-05-09T10:38:08.454Z,7.30
2019-05-09T10:40:34.419Z,7.30
2019-05-09T10:43:08.402Z,7.40
2019-05-09T10:45:42.856Z,7.30
2019-05-09T10:48:10.171Z,7.30
2019-05-09T10:50:44.712Z,7.30
2019-05-09T10:53:08.006Z,7.30
2019-05-09T10:55:38.542Z,7.30
2019-05-09T10:58:04.799Z,7.30
2019-05-09T11:00:32.136Z,7.40
2019-05-09T11:02:59.561Z,7.50
2019-05-09T11:05:27.717Z,7.50
2019-05-09T11:07:55.467Z,7.50
2019-05-09T11:10:27.819Z,7.40
2019-05-09T11:12:52.336Z,7.40
2019-05-09T11:15:19.672Z,7.30
2019-05-09T11:17:47.519Z,7.30
2019-05-09T11:20:14.910Z,7.30
2019-05-09T11:22:42.754Z,7.30
2019-05-09T11:25:10.313Z,7.30
2019-05-09T11:27:38.898Z,7.30
2019-05-09T11:30:08.427Z,7.20
2019-05-09T11:32:35.762Z,7.20
2019-05-09T11:35:03.796Z,7.20
2019-05-09T11:37:31.249Z,7.30
2019-05-09T11:39:58.564Z,7.30
2019-05-09T11:42:25.839Z,7.30
2019-05-09T11:44:53.100Z,7.40
2019-05-09T11:47:31.917Z,7.30
2019-05-09T11:49:49.573Z,7.40
2019-05-09T11:52:18.316Z,7.40
2019-05-09T11:54:48.034Z,7.30
2019-05-09T11:57:15.116Z,7.40
2019-05-09T11:59:42.500Z,7.40
2019-05-09T12:02:09.961Z,7.40
2019-05-09T12:04:37.965Z,7.50
2019-05-09T12:07:07.777Z,7.50
2019-05-09T12:09:34.690Z,7.40
2019-05-09T12:12:02.213Z,7.40
2019-05-09T12:14:29.657Z,7.40
2019-05-09T12:16:57.012Z,7.40
2019-05-09T12:19:24.484Z,7.40
2019-05-09T12:21:51.911Z,7.40
2019-05-09T12:24:19.297Z,7.40
2019-05-09T12:26:48.552Z,7.50
2019-05-09T12:29:15.924Z,7.50
2019-05-09T12:31:43.265Z,7.50
2019-05-09T12:34:10.618Z,7.40
2019-05-09T12:36:39.869Z,7.40
2019-05-09T12:39:08.732Z,7.40
2019-05-09T12:41:38.451Z,7.50
2019-05-09T12:44:05.507Z,7.50
2019-05-09T12:46:32.877Z,7.60
2019-05-09T12:49:00.312Z,7.60
2019-05-09T12:51:28.250Z,7.70
2019-05-09T12:53:57.838Z,7.70
2019-05-09T12:56:25.049Z,7.70
2019-05-09T12:58:52.499Z,7.60
2019-05-09T13:01:20.034Z,7.60
2019-05-09T13:03:48.463Z,7.50
2019-05-09T13:06:19.508Z,7.50
2019-05-09T13:08:45.175Z,7.50
2019-05-09T13:11:12.640Z,7.60
2019-05-09T13:13:41.157Z,7.60
2019-05-09T13:16:48.658Z,7.70
2019-05-09T13:19:11.997Z,7.70
2019-05-09T13:21:39.429Z,7.70
2019-05-09T13:24:08.602Z,7.70
2019-05-09T13:26:38.326Z,7.70
2019-05-09T13:29:07.896Z,7.70
2019-05-09T13:31:39.303Z,7.70
2019-05-09T13:34:07.691Z,7.80
2019-05-09T13:36:34.032Z,7.80
2019-05-09T13:39:05.032Z,7.80
2019-05-09T13:41:30.436Z,7.70
2019-05-09T13:44:04.629Z,7.70
2019-05-09T13:46:28.223Z,7.60
2019-05-09T13:49:09.884Z,7.70
2019-05-09T13:51:25.200Z,7.50
2019-05-09T13:53:53.794Z,7.40
2019-05-09T13:56:21.224Z,7.40
2019-05-09T13:58:48.858Z,7.50
2019-05-09T14:01:17.637Z,7.40
2019-05-09T14:03:45.358Z,7.50
2019-05-09T14:06:12.944Z,7.50
2019-05-09T14:08:40.429Z,7.50
2019-05-09T14:11:08.550Z,7.60
2019-05-09T14:13:38.314Z,7.70
2019-05-09T14:16:18.835Z,7.70
2019-05-09T14:18:34.505Z,7.60
2019-05-09T14:21:02.043Z,7.60
2019-05-09T14:23:35.337Z,7.60
2019-05-09T14:25:59.162Z,7.60
2019-05-09T14:28:28.603Z,7.60
2019-05-09T14:30:55.980Z,7.60
2019-05-09T14:33:23.305Z,7.60
2019-05-09T14:35:50.677Z,7.50
2019-05-09T14:38:18.525Z,7.60
2019-05-09T14:40:47.443Z,7.60
2019-05-09T14:43:14.800Z,7.60
2019-05-09T14:45:42.101Z,7.70
2019-05-09T14:48:09.563Z,7.60
2019-05-09T14:50:38.175Z,7.60
2019-05-09T14:53:07.876Z,7.60
2019-05-09T14:55:34.858Z,7.60
2019-05-09T14:58:02.310Z,7.60
2019-05-09T15:00:29.785Z,7.70
2019-05-09T15:02:58.112Z,7.70
2019-05-09T15:05:27.867Z,7.70
2019-05-09T15:07:58.928Z,7.70
2019-05-09T15:10:25.326Z,7.70
2019-05-09T15:12:52.682Z,7.80
2019-05-09T15:15:20.103Z,7.80
2019-05-09T15:17:49.210Z,7.70
2019-05-09T15:20:17.977Z,7.70
2019-05-09T15:22:47.826Z,7.80
2019-05-09T15:25:14.943Z,7.80
2019-05-09T15:27:44.253Z,7.90
2019-05-09T15:30:12.745Z,7.90
2019-05-09T15:32:40.185Z,7.90
2019-05-09T15:35:09.048Z,7.90
2019-05-09T15:37:38.691Z,7.90
2019-05-09T15:40:08.458Z,7.90
2019-05-09T15:42:35.385Z,7.90
2019-05-09T15:45:03.201Z,7.90
2019-05-09T15:47:33.803Z,7.90
2019-05-09T15:50:15.504Z,7.90
2019-05-09T15:52:30.183Z,7.90
2019-05-09T15:54:58.014Z,7.90
2019-05-09T15:57:27.470Z,8.00
2019-05-09T15:59:54.619Z,8.00
2019-05-09T16:02:22.183Z,8.10
2019-05-09T16:04:49.519Z,8.10
2019-05-09T16:07:17.880Z,8.10
2019-05-09T16:09:45.299Z,8.10
2019-05-09T16:12:12.544Z,8.10
2019-05-09T16:14:40.078Z,8.20
2019-05-09T16:17:07.922Z,8.20
2019-05-09T16:19:37.641Z,8.20
2019-05-09T16:22:04.545Z,8.20
2019-05-09T16:24:31.820Z,8.10
2019-05-09T16:26:59.437Z,8.20
2019-05-09T16:29:28.183Z,8.20
2019-05-09T16:31:57.976Z,8.20
2019-05-09T16:34:28.088Z,8.20
2019-05-09T16:36:54.842Z,8.30
2019-05-09T16:39:22.288Z,8.40
2019-05-09T16:41:49.632Z,8.40
2019-05-09T16:44:18.309Z,8.40
2019-05-09T16:46:48.432Z,8.40
2019-05-09T16:49:17.497Z,8.40
2019-05-09T16:51:44.656Z,8.30
2019-05-09T16:54:12.203Z,8.30
2019-05-09T16:56:39.519Z,8.20
2019-05-09T16:59:08.255Z,8.20
2019-05-09T17:01:39.423Z,8.30
2019-05-09T17:04:08.185Z,8.20
2019-05-09T17:06:37.913Z,8.20
2019-05-09T17:09:08.438Z,8.20
2019-05-09T17:11:35.952Z,8.20
2019-05-09T17:14:03.281Z,8.20
2019-05-09T17:16:30.719Z,8.20
2019-05-09T17:18:58.352Z,8.20
2019-05-09T17:21:50.271Z,8.30
2019-05-09T17:24:18.518Z,8.20
2019-05-09T17:26:48.660Z,8.20
2019-05-09T17:29:15.393Z,8.30
2019-05-09T17:31:42.743Z,8.30
2019-05-09T17:34:10.102Z,8.40
2019-05-09T17:36:38.551Z,8.60
2019-05-09T17:39:07.939Z,8.50
2019-05-09T17:41:37.750Z,8.50
2019-05-09T17:44:04.939Z,8.50
2019-05-09T17:46:32.385Z,8.40
2019-05-09T17:48:59.836Z,8.30
2019-05-09T17:51:34.063Z,8.20
2019-05-09T17:53:58.385Z,8.30
2019-05-09T17:56:25.618Z,8.20
2019-05-09T17:58:52.971Z,8.10
2019-05-09T18:01:20.373Z,8.10
2019-05-09T18:03:48.219Z,8.10
2019-05-09T18:06:15.564Z,8.10
2019-05-09T18:08:42.980Z,8.20
2019-05-09T18:11:12.958Z,8.20
2019-05-09T18:13:39.541Z,8.20
2019-05-09T18:16:06.882Z,8.10
2019-05-09T18:18:34.225Z,8.00
2019-05-09T18:21:01.497Z,8.00
2019-05-09T18:23:28.766Z,8.00
2019-05-09T18:25:58.345Z,7.90
2019-05-09T18:28:25.322Z,7.90
2019-05-09T18:30:52.577Z,7.90
2019-05-09T18:33:31.601Z,7.90
2019-05-09T18:35:58.807Z,7.90
2019-05-09T18:38:29.944Z,7.80
2019-05-09T18:40:57.858Z,7.80
2019-05-09T18:43:27.437Z,7.80
2019-05-09T18:45:54.853Z,7.80
2019-05-09T18:48:22.199Z,7.80
2019-05-09T18:50:49.452Z,7.80
2019-05-09T18:53:16.816Z,7.80
2019-05-09T18:55:44.168Z,7.80
2019-05-09T18:58:11.509Z,7.70
2019-05-09T19:00:38.874Z,7.80
2019-05-09T19:03:06.226Z,7.90
2019-05-09T19:05:33.547Z,7.90
2019-05-09T19:08:00.913Z,7.90
2019-05-09T19:10:28.289Z,7.80
2019-05-09T19:12:55.701Z,7.80
2019-05-09T19:15:29.441Z,7.70
2019-05-09T19:18:04.331Z,7.70
2019-05-09T19:20:41.682Z,7.70
2019-05-09T19:23:09.404Z,7.70
2019-05-09T19:25:36.800Z,7.70
2019-05-09T19:28:04.269Z,7.70
2019-05-09T19:30:37.628Z,7.80
2019-05-09T19:33:05.368Z,7.70
2019-05-09T19:35:32.696Z,7.70
2019-05-09T19:38:00.066Z,7.80
2019-05-09T19:40:27.495Z,7.70
2019-05-09T19:42:56.210Z,7.80
2019-05-09T19:45:23.553Z,7.90
2019-05-09T19:47:51.026Z,7.90
2019-05-09T19:50:18.959Z,7.80
2019-05-09T19:52:46.205Z,7.80
2019-05-09T19:55:13.756Z,7.80
2019-05-09T19:57:41.320Z,7.80
2019-05-09T20:00:09.337Z,7.90
2019-05-09T20:02:36.704Z,7.90
2019-05-09T20:05:04.349Z,7.80
2019-05-09T20:07:31.829Z,7.80
2019-05-09T20:10:19.013Z,7.80
2019-05-09T20:13:06.156Z,7.70
2019-05-09T20:15:42.418Z,7.70
2019-05-09T20:18:09.933Z,7.70
2019-05-09T20:20:37.409Z,7.70
2019-05-09T20:23:04.731Z,7.70
2019-05-09T20:25:32.147Z,7.70
2019-05-09T20:27:59.408Z,7.70
2019-05-09T20:30:27.180Z,7.60
2019-05-09T20:32:54.499Z,7.70
2019-05-09T20:35:22.176Z,7.60
2019-05-09T20:37:49.603Z,7.70
2019-05-09T20:40:16.913Z,7.80
2019-05-09T20:42:44.336Z,7.80
2019-05-09T20:45:12.100Z,7.70
2019-05-09T20:47:39.540Z,7.70
2019-05-09T20:50:07.000Z,7.60
2019-05-09T20:52:34.327Z,7.70
2019-05-09T20:55:01.594Z,7.70
2019-05-09T20:57:28.818Z,7.60
2019-05-09T20:59:56.150Z,7.60
2019-05-09T21:02:25.385Z,7.60
2019-05-09T21:04:52.839Z,7.60
2019-05-09T21:07:20.123Z,7.60
2019-05-09T21:09:47.480Z,7.60
2019-05-09T21:12:14.820Z,7.60
2019-05-09T21:14:42.104Z,7.60
2019-05-09T21:17:11.163Z,7.60
2019-05-09T21:19:38.646Z,7.70
2019-05-09T21:22:05.980Z,7.60
2019-05-09T21:24:33.348Z,7.60
2019-05-09T21:27:00.544Z,7.60
2019-05-09T21:29:27.955Z,7.60
2019-05-09T21:31:55.259Z,7.60
2019-05-09T21:34:22.468Z,7.50
2019-05-09T21:36:50.012Z,7.50
2019-05-09T21:39:17.471Z,7.50
2019-05-09T21:41:44.902Z,7.50
2019-05-09T21:44:12.438Z,7.60
2019-05-09T21:46:39.778Z,7.50
2019-05-09T21:49:07.185Z,7.50
2019-05-09T21:51:34.827Z,7.50
2019-05-09T21:54:02.229Z,7.60
2019-05-09T21:56:29.588Z,7.50
2019-05-09T21:58:57.278Z,7.50
2019-05-09T22:01:25.000Z,7.60
2019-05-09T22:03:53.405Z,7.60
2019-05-09T22:06:21.119Z,7.60
2019-05-09T22:08:48.709Z,7.50
2019-05-09T22:11:16.128Z,7.50
2019-05-09T22:13:43.455Z,7.50
2019-05-09T22:16:10.856Z,7.60
2019-05-09T22:18:38.195Z,7.50
2019-05-09T22:21:05.513Z,7.50
2019-05-09T22:23:32.865Z,7.50
2019-05-09T22:26:00.288Z,7.50
2019-05-09T22:28:27.631Z,7.50
2019-05-09T22:30:54.936Z,7.50
2019-05-09T22:33:22.198Z,7.50
2019-05-09T22:35:49.664Z,7.50
2019-05-09T22:38:17.176Z,7.50
2019-05-09T22:40:44.564Z,7.50
2019-05-09T22:43:11.979Z,7.50
2019-05-09T22:45:39.337Z,7.50
2019-05-09T22:48:06.652Z,7.50
2019-05-09T22:50:34.000Z,7.60
2019-05-09T22:53:01.321Z,7.50
2019-05-09T22:55:28.806Z,7.60
2019-05-09T22:57:56.104Z,7.60
2019-05-09T23:00:23.436Z,7.50
2019-05-09T23:02:50.934Z,7.60
2019-05-09T23:05:18.223Z,7.70
2019-05-09T23:07:45.532Z,7.60
2019-05-09T23:10:12.994Z,7.50
2019-05-09T23:12:40.543Z,7.50
2019-05-09T23:15:09.852Z,7.40
2019-05-09T23:17:37.208Z,7.40
2019-05-09T23:20:07.050Z,7.40
2019-05-09T23:22:34.580Z,7.40
2019-05-09T23:25:02.148Z,7.50
2019-05-09T23:27:29.710Z,7.40
2019-05-09T23:29:57.055Z,7.40
2019-05-09T23:32:45.941Z,7.60
2019-05-09T23:35:13.302Z,7.50
2019-05-09T23:37:40.614Z,7.40
2019-05-09T23:40:08.375Z,7.40
2019-05-09T23:42:35.723Z,7.40
2019-05-09T23:45:03.559Z,7.40
2019-05-09T23:47:31.033Z,7.30
2019-05-09T23:49:58.332Z,7.40
2019-05-09T23:52:25.593Z,7.30
2019-05-09T23:55:11.811Z,7.30
2019-05-09T23:57:57.455Z,7.30
